Mattawa, Canada
Current Conditions -  °F | °C
As of 3:20 PM on Saturday 25 Oct 2014 (Local Time) from CYYB Reporting Station
Broken Clouds Broken Clouds  
Wind Chill: 52°   Ceiling: 2500
Heat Index: 52°   Visibility: 20mi
Dew Point: 46°   Wind: 13mph
Humidity: 82%   Direction: 260°W
Pressure: 29.43"   Gusts: 21mph
Location:  46.32°N, 78.7°W
Report Text: CYYB 251920Z 26011G18KT 20SM BKN025TCU BKN090 11/08 A2943 RMK TCU5AC2 SLP973 DENSITY ALT 1600FT
Loading
Personal Weather Stations






























Interactive Weather Map
Tropical Storm Tracking
New forecast layout! Learn more

10-Day Weather Forecast

Advertisements
Track Severe Weather on mobile